createdAt,value
2018-07-20T00:00:36.824Z,79.60
2018-07-20T00:01:36.764Z,79.50
2018-07-20T00:02:36.764Z,79.69
2018-07-20T00:03:36.768Z,79.02
2018-07-20T00:04:36.760Z,79.02
2018-07-20T00:05:36.762Z,78.63
2018-07-20T00:06:36.757Z,78.25
2018-07-20T00:07:36.757Z,78.83
2018-07-20T00:08:36.753Z,78.53
2018-07-20T00:09:36.750Z,78.92
2018-07-20T00:10:36.752Z,78.92
2018-07-20T00:11:36.749Z,79.11
2018-07-20T00:12:36.747Z,79.50
2018-07-20T00:13:36.745Z,79.40
2018-07-20T00:14:36.744Z,79.40
2018-07-20T00:15:36.743Z,79.02
2018-07-20T00:16:36.769Z,79.50
2018-07-20T00:17:36.740Z,79.60
2018-07-20T00:18:36.739Z,79.60
2018-07-20T00:19:36.736Z,79.50
2018-07-20T00:20:36.734Z,79.79
2018-07-20T00:21:36.737Z,79.50
2018-07-20T00:22:36.734Z,79.40
2018-07-20T00:23:36.736Z,79.69
2018-07-20T00:24:36.727Z,79.60
2018-07-20T00:25:36.728Z,79.40
2018-07-20T00:26:36.726Z,80.27
2018-07-20T00:27:36.724Z,80.13
2018-07-20T00:28:36.724Z,79.94
2018-07-20T00:29:36.722Z,80.32
2018-07-20T00:30:36.722Z,80.32
2018-07-20T00:31:36.720Z,80.90
2018-07-20T00:32:36.715Z,80.90
2018-07-20T00:33:36.715Z,80.99
2018-07-20T00:34:36.720Z,80.99
2018-07-20T00:35:36.713Z,80.99
2018-07-20T00:36:36.715Z,81.09
2018-07-20T00:37:36.713Z,81.48
2018-07-20T00:38:36.711Z,81.48
2018-07-20T00:39:36.706Z,81.38
2018-07-20T00:40:36.710Z,80.80
2018-07-20T00:41:36.703Z,81.09
2018-07-20T00:42:36.700Z,80.71
2018-07-20T00:43:36.700Z,80.80
2018-07-20T00:44:36.697Z,80.90
2018-07-20T00:45:36.699Z,80.99
2018-07-20T00:46:36.695Z,80.32
2018-07-20T00:47:36.695Z,80.99
2018-07-20T00:48:36.688Z,81.19
2018-07-20T00:49:36.688Z,81.57
2018-07-20T00:50:36.687Z,81.86
2018-07-20T00:51:36.681Z,81.67
2018-07-20T00:52:36.685Z,81.05
2018-07-20T00:53:36.685Z,81.76
2018-07-20T00:54:36.680Z,81.63
2018-07-20T00:55:36.682Z,81.24
2018-07-20T00:56:36.681Z,81.63
2018-07-20T00:57:36.675Z,82.10
2018-07-20T00:58:36.674Z,81.72
2018-07-20T00:59:36.672Z,81.72
2018-07-20T01:00:36.671Z,81.72
2018-07-20T01:01:36.731Z,81.92
2018-07-20T01:02:36.725Z,82.59
2018-07-20T01:03:36.664Z,82.87
2018-07-20T01:04:36.663Z,82.78
2018-07-20T01:05:36.669Z,82.97
2018-07-20T01:06:36.660Z,83.16
2018-07-20T01:07:36.674Z,83.64
2018-07-20T01:08:36.655Z,83.64
2018-07-20T01:09:36.653Z,83.54
2018-07-20T01:10:36.651Z,84.37
2018-07-20T01:11:36.655Z,84.47
2018-07-20T01:12:36.650Z,84.66
2018-07-20T01:13:36.647Z,84.37
2018-07-20T01:14:36.644Z,84.37
2018-07-20T01:15:36.643Z,85.24
2018-07-20T01:16:36.651Z,85.04
2018-07-20T01:17:36.641Z,85.42
2018-07-20T01:18:36.645Z,85.14
2018-07-20T01:19:36.634Z,85.04
2018-07-20T01:20:36.634Z,85.33
2018-07-20T01:21:36.632Z,84.75
2018-07-20T01:22:36.630Z,84.56
2018-07-20T01:23:36.631Z,84.08
2018-07-20T01:24:36.627Z,84.66
2018-07-20T01:25:36.626Z,84.27
2018-07-20T01:26:36.626Z,84.18
2018-07-20T01:27:36.622Z,84.75
2018-07-20T01:28:36.616Z,85.24
2018-07-20T01:29:36.617Z,84.95
2018-07-20T01:30:36.611Z,85.33
2018-07-20T02:04:59.447Z,87.78
2018-07-20T02:05:59.425Z,87.30
2018-07-20T02:07:52.353Z,87.78
2018-07-20T02:08:52.328Z,87.59
2018-07-20T02:10:45.234Z,87.68
2018-07-20T02:11:45.209Z,87.68
2018-07-20T02:13:38.135Z,87.68
2018-07-20T02:14:38.126Z,87.21
2018-07-20T02:16:31.069Z,87.78
2018-07-20T02:17:31.051Z,87.49
2018-07-20T02:19:23.953Z,87.78
2018-07-20T02:20:23.936Z,87.78
2018-07-20T02:22:16.899Z,87.68
2018-07-20T02:23:16.870Z,87.78
2018-07-20T02:25:09.841Z,87.98
2018-07-20T02:26:09.819Z,88.74
2018-07-20T02:28:02.756Z,88.74
2018-07-20T02:29:02.737Z,88.60
2018-07-20T02:30:55.654Z,89.08
2018-07-20T02:31:55.643Z,88.51
2018-07-20T02:33:48.577Z,89.37
2018-07-20T02:34:48.568Z,89.37
2018-07-20T02:36:41.519Z,90.04
2018-07-20T02:37:41.499Z,90.14
2018-07-20T02:39:34.452Z,89.08
2018-07-20T02:40:34.443Z,89.75
2018-07-20T02:42:27.418Z,89.18
2018-07-20T02:43:27.397Z,89.94
2018-07-20T02:45:20.361Z,89.94
2018-07-20T02:46:20.359Z,89.65
2018-07-20T02:48:13.254Z,90.33
2018-07-20T02:49:13.235Z,90.61
2018-07-20T02:51:06.195Z,90.33
2018-07-20T02:52:06.162Z,90.33
2018-07-20T02:53:59.120Z,90.81
2018-07-20T02:54:59.108Z,90.61
2018-07-20T02:56:52.129Z,90.33
2018-07-20T02:57:52.112Z,90.42
2018-07-20T02:59:45.065Z,90.33
2018-07-20T03:00:45.053Z,91.00
2018-07-20T03:02:37.971Z,91.24
2018-07-20T03:03:37.942Z,90.23
2018-07-20T03:05:30.835Z,91.00
2018-07-20T03:06:30.828Z,90.95
2018-07-20T03:08:23.765Z,91.14
2018-07-20T03:09:23.746Z,91.14
2018-07-20T03:11:16.694Z,91.28
2018-07-20T03:12:16.669Z,91.19
2018-07-20T03:14:09.643Z,91.19
2018-07-20T03:15:09.622Z,91.82
2018-07-20T03:17:02.599Z,91.24
2018-07-20T03:18:02.573Z,91.82
2018-07-20T03:19:55.534Z,91.72
2018-07-20T03:20:55.536Z,92.01
2018-07-20T03:22:48.552Z,91.82
2018-07-20T03:23:48.528Z,92.39
2018-07-20T03:25:41.518Z,92.20
2018-07-20T03:26:41.502Z,91.63
2018-07-20T03:28:34.474Z,92.01
2018-07-20T03:29:34.452Z,92.10
2018-07-20T03:31:27.455Z,92.87
2018-07-20T03:32:27.443Z,92.77
2018-07-20T03:34:20.369Z,93.06
2018-07-20T03:35:20.350Z,93.06
2018-07-20T03:37:13.265Z,92.39
2018-07-20T03:38:13.245Z,93.35
2018-07-20T03:40:06.190Z,93.26
2018-07-20T03:41:06.192Z,93.35
2018-07-20T03:42:59.161Z,93.44
2018-07-20T03:43:59.135Z,93.35
2018-07-20T03:45:52.123Z,93.26
2018-07-20T03:46:52.112Z,92.77
2018-07-20T03:48:45.162Z,92.49
2018-07-20T03:49:45.141Z,92.58
2018-07-20T03:51:38.116Z,92.30
2018-07-20T03:52:38.103Z,92.39
2018-07-20T03:54:31.070Z,92.39
2018-07-20T03:55:31.050Z,92.39
2018-07-20T03:57:23.987Z,92.68
2018-07-20T03:58:23.974Z,93.16
2018-07-20T04:00:16.916Z,93.44
2018-07-20T04:01:16.907Z,92.97
2018-07-20T04:03:09.862Z,93.35
2018-07-20T04:04:09.844Z,93.44
2018-07-20T04:06:02.763Z,92.63
2018-07-20T04:07:02.741Z,92.72
2018-07-20T04:08:55.740Z,92.34
2018-07-20T04:09:55.717Z,91.67
2018-07-20T04:11:48.662Z,91.09
2018-07-20T04:12:48.650Z,91.09
2018-07-20T04:14:41.630Z,91.28
2018-07-20T04:15:41.609Z,91.48
2018-07-20T04:17:34.531Z,90.66
2018-07-20T04:18:34.509Z,90.37
2018-07-20T04:20:27.485Z,90.47
2018-07-20T04:21:27.474Z,90.56
2018-07-20T04:23:20.409Z,89.79
2018-07-20T04:24:20.382Z,89.89
2018-07-20T04:26:13.276Z,89.22
2018-07-20T04:27:13.256Z,89.51
2018-07-20T04:29:06.171Z,89.51
2018-07-20T04:30:06.157Z,89.32
2018-07-20T04:31:59.185Z,89.79
2018-07-20T04:32:59.171Z,89.51
2018-07-20T04:34:52.148Z,89.89
2018-07-20T04:35:52.072Z,89.61
2018-07-20T04:37:45.000Z,89.61
2018-07-20T04:38:44.970Z,89.94
2018-07-20T04:40:37.906Z,88.79
2018-07-20T04:41:37.888Z,88.79
2018-07-20T04:43:30.845Z,88.40
2018-07-20T04:44:30.826Z,88.21
2018-07-20T04:46:23.725Z,87.39
2018-07-20T04:47:23.716Z,87.19
2018-07-20T04:49:16.695Z,86.33
2018-07-20T04:50:16.677Z,86.24
2018-07-20T04:52:09.600Z,85.61
2018-07-20T04:53:09.584Z,85.51
2018-07-20T04:55:02.601Z,85.22
2018-07-20T04:56:02.583Z,84.84
2018-07-20T04:57:55.508Z,84.21
2018-07-20T04:58:55.554Z,84.30
2018-07-20T05:00:48.428Z,83.63
2018-07-20T05:01:48.416Z,83.63
2018-07-20T05:03:41.384Z,83.44
2018-07-20T05:04:41.367Z,83.63
2018-07-20T05:06:34.304Z,83.19
2018-07-20T05:07:34.296Z,82.23
2018-07-20T05:09:27.260Z,82.61
2018-07-20T05:10:27.241Z,82.61
2018-07-20T05:12:20.151Z,82.71
2018-07-20T05:13:20.143Z,83.09
2018-07-20T05:15:13.113Z,82.61
2018-07-20T05:16:13.101Z,82.23
2018-07-20T05:18:06.113Z,83.29
2018-07-20T05:19:06.090Z,83.29
2018-07-20T05:20:59.116Z,84.63
2018-07-20T05:21:59.094Z,85.74
2018-07-20T05:22:59.097Z,85.64
2018-07-20T05:23:59.098Z,84.29
2018-07-20T05:24:59.109Z,83.91
2018-07-20T05:25:59.096Z,84.00
2018-07-20T05:26:59.098Z,84.58
2018-07-20T05:27:59.094Z,84.58
2018-07-20T05:28:59.095Z,84.81
2018-07-20T05:29:59.096Z,84.58
2018-07-20T05:30:59.199Z,84.58
2018-07-20T05:31:59.101Z,85.06
2018-07-20T05:32:59.100Z,84.77
2018-07-20T05:33:59.102Z,84.39
2018-07-20T05:34:59.338Z,84.77
2018-07-20T05:35:59.102Z,84.39
2018-07-20T05:36:59.107Z,83.14
2018-07-20T05:37:59.108Z,83.09
2018-07-20T05:38:59.105Z,82.27
2018-07-20T05:39:59.108Z,81.84
2018-07-20T05:40:59.108Z,82.71
2018-07-20T05:41:59.108Z,82.32
2018-07-20T05:42:59.110Z,82.23
2018-07-20T05:43:59.140Z,81.50
2018-07-20T05:44:59.115Z,82.08
2018-07-20T05:45:59.113Z,81.60
2018-07-20T05:46:59.117Z,81.12
2018-07-20T05:47:59.124Z,80.63
2018-07-20T05:48:59.124Z,81.30
2018-07-20T05:49:59.119Z,80.92
2018-07-20T05:50:59.146Z,82.21
2018-07-20T05:51:59.125Z,81.93
2018-07-20T05:52:59.119Z,80.58
2018-07-20T05:53:59.123Z,80.10
2018-07-20T05:54:59.124Z,80.10
2018-07-20T05:55:59.125Z,79.96
2018-07-20T05:56:59.127Z,79.81
2018-07-20T05:57:59.131Z,79.61
2018-07-20T05:58:59.127Z,80.29
2018-07-20T05:59:59.129Z,80.38
2018-07-20T06:00:59.129Z,79.71
2018-07-20T06:01:59.132Z,79.27
2018-07-20T06:02:59.136Z,79.46
2018-07-20T06:03:59.141Z,79.89
2018-07-20T06:04:59.137Z,79.31
2018-07-20T06:05:59.136Z,79.50
2018-07-20T06:06:59.138Z,79.25
2018-07-20T06:07:59.138Z,78.86
2018-07-20T06:08:59.140Z,78.81
2018-07-20T06:09:59.151Z,78.52
2018-07-20T06:10:59.144Z,76.98
2018-07-20T06:11:59.141Z,76.20
2018-07-20T06:12:59.147Z,77.75
2018-07-20T06:13:59.151Z,77.21
2018-07-20T06:14:59.154Z,76.15
2018-07-20T06:15:59.151Z,76.15
2018-07-20T06:16:59.156Z,75.53
2018-07-20T06:17:59.159Z,76.34
2018-07-20T06:18:59.196Z,75.18
2018-07-20T06:19:59.160Z,75.37
2018-07-20T06:20:59.167Z,75.47
2018-07-20T06:21:59.163Z,74.99
2018-07-20T06:22:59.196Z,74.54
2018-07-20T06:23:59.197Z,73.96
2018-07-20T06:24:59.170Z,73.67
2018-07-20T06:25:59.181Z,73.32
2018-07-20T06:26:59.176Z,72.36
2018-07-20T06:27:59.179Z,73.71
2018-07-20T06:28:59.181Z,73.61
2018-07-20T06:29:59.189Z,72.78
2018-07-20T06:30:59.190Z,72.64
2018-07-20T06:31:59.191Z,72.94
2018-07-20T06:32:59.194Z,73.42
2018-07-20T06:33:59.196Z,73.52
2018-07-20T06:34:59.200Z,74.83
2018-07-20T06:35:59.201Z,74.35
2018-07-20T06:36:59.204Z,73.00
2018-07-20T06:37:59.208Z,73.28
2018-07-20T06:38:59.217Z,73.42
2018-07-20T06:39:59.214Z,72.84
2018-07-20T06:40:59.222Z,72.20
2018-07-20T06:41:59.211Z,71.66
2018-07-20T06:42:59.227Z,69.43
2018-07-20T06:43:59.222Z,68.01
2018-07-20T06:44:59.232Z,67.24
2018-07-20T06:45:59.237Z,67.18
2018-07-20T06:46:59.241Z,66.30
2018-07-20T06:47:59.254Z,66.56
2018-07-20T06:48:59.246Z,68.17
2018-07-20T06:49:59.251Z,68.69
2018-07-20T06:50:59.262Z,68.21
2018-07-20T06:51:59.255Z,67.91
2018-07-20T06:52:59.259Z,67.95
2018-07-20T06:53:59.264Z,67.27
2018-07-20T06:54:59.268Z,67.76
2018-07-20T06:55:59.278Z,67.44
2018-07-20T06:56:59.273Z,66.30
2018-07-20T06:57:59.277Z,65.34
2018-07-20T06:58:59.284Z,64.78
2018-07-20T06:59:59.288Z,64.43
2018-07-20T07:00:59.291Z,63.82
2018-07-20T07:01:59.297Z,64.17
2018-07-20T07:02:59.301Z,64.56
2018-07-20T07:03:59.310Z,63.91
2018-07-20T07:04:59.310Z,64.01
2018-07-20T07:05:59.316Z,63.13
2018-07-20T07:06:59.314Z,64.30
2018-07-20T07:07:59.325Z,64.53
2018-07-20T07:08:59.331Z,63.78
2018-07-20T07:09:59.329Z,62.77
2018-07-20T07:10:59.337Z,60.99
2018-07-20T07:11:59.338Z,59.36
2018-07-20T07:12:59.352Z,57.47
2018-07-20T07:13:59.350Z,56.36
2018-07-20T07:14:59.434Z,55.22
2018-07-20T07:15:59.361Z,54.75
2018-07-20T07:16:59.364Z,53.02
2018-07-20T07:17:59.370Z,53.89
2018-07-20T07:18:59.379Z,54.82
2018-07-20T07:19:59.384Z,55.40
2018-07-20T07:20:59.392Z,55.94
2018-07-20T07:21:59.402Z,52.95
2018-07-20T07:22:59.411Z,52.80
2018-07-20T07:23:59.418Z,53.44
2018-07-20T07:24:59.430Z,51.32
2018-07-20T07:25:59.523Z,51.05
2018-07-20T07:26:59.448Z,49.41
2018-07-20T07:27:59.455Z,49.21
2018-07-20T07:28:59.471Z,48.90
2018-07-20T07:29:59.478Z,49.51
2018-07-20T07:30:59.495Z,50.32
2018-07-20T07:31:59.499Z,48.80
2018-07-20T07:32:59.516Z,47.55
2018-07-20T07:33:59.525Z,46.76
2018-07-20T07:34:59.543Z,46.69
2018-07-20T07:35:59.556Z,48.48
2018-07-20T07:36:59.566Z,47.77
2018-07-20T07:37:59.580Z,48.87
2018-07-20T07:38:59.593Z,50.93
2018-07-20T07:39:59.608Z,49.58
2018-07-20T07:40:59.619Z,48.53
2018-07-20T07:41:59.637Z,48.94
2018-07-20T07:42:59.650Z,48.16
2018-07-20T07:43:59.665Z,47.91
2018-07-20T07:44:59.680Z,47.47
2018-07-20T07:45:59.691Z,47.62
2018-07-20T07:46:59.708Z,48.99
2018-07-20T07:47:59.721Z,48.75
2018-07-20T07:48:59.741Z,48.68
2018-07-20T07:49:59.755Z,48.70
2018-07-20T07:50:59.774Z,47.69
2018-07-20T07:51:59.786Z,45.95
2018-07-20T07:52:59.799Z,45.36
2018-07-20T07:53:59.814Z,44.81
2018-07-20T07:54:59.831Z,44.49
2018-07-20T07:55:59.848Z,46.34
2018-07-20T07:56:59.863Z,47.94
2018-07-20T07:57:59.877Z,48.94
2018-07-20T07:58:59.893Z,48.80
2018-07-20T07:59:59.909Z,48.90
2018-07-20T08:00:59.928Z,48.85
2018-07-20T08:01:59.942Z,48.01
2018-07-20T08:02:59.954Z,46.91
2018-07-20T08:03:59.982Z,48.04
2018-07-20T08:04:59.990Z,47.23
2018-07-20T08:06:00.019Z,47.30
2018-07-20T08:07:00.027Z,46.06
2018-07-20T08:08:00.041Z,45.28
2018-07-20T08:09:00.056Z,44.71
2018-07-20T08:10:00.261Z,43.65
2018-07-20T08:11:00.089Z,43.08
2018-07-20T08:12:00.109Z,42.59
2018-07-20T08:13:00.122Z,43.36
2018-07-20T08:14:00.142Z,44.67
2018-07-20T08:15:00.159Z,44.06
2018-07-20T08:16:00.173Z,45.86
2018-07-20T08:17:00.194Z,45.54
2018-07-20T08:18:00.209Z,46.01
2018-07-20T08:19:00.228Z,46.27
2018-07-20T08:20:00.244Z,46.71
2018-07-20T08:21:00.266Z,44.33
2018-07-20T08:22:00.277Z,45.54
2018-07-20T08:23:00.353Z,45.98
2018-07-20T08:24:00.317Z,45.16
2018-07-20T08:25:00.331Z,43.33
2018-07-20T08:26:00.349Z,42.47
2018-07-20T08:27:00.364Z,43.89
2018-07-20T08:28:00.382Z,41.41
2018-07-20T08:29:00.399Z,41.22
2018-07-20T08:30:00.448Z,41.99
2018-07-20T08:31:00.439Z,42.00
2018-07-20T08:32:00.456Z,40.70
2018-07-20T08:33:00.476Z,43.15
2018-07-20T08:34:00.494Z,41.51
2018-07-20T08:35:00.510Z,43.65
2018-07-20T08:36:00.527Z,46.02
2018-07-20T08:37:00.543Z,45.90
2018-07-20T08:38:00.596Z,45.80
2018-07-20T08:39:00.585Z,45.70
2018-07-20T08:40:00.603Z,45.14
2018-07-20T08:41:00.607Z,45.83
2018-07-20T08:42:00.635Z,44.41
2018-07-20T08:43:00.646Z,45.76
2018-07-20T08:44:00.665Z,46.67
2018-07-20T08:45:00.679Z,48.46
2018-07-20T08:46:00.694Z,48.23
2018-07-20T08:47:00.708Z,47.20
2018-07-20T08:48:00.722Z,45.54
2018-07-20T08:49:00.741Z,47.85
2018-07-20T08:50:00.753Z,48.58
2018-07-20T08:51:00.773Z,47.25
2018-07-20T08:52:00.786Z,47.74
2018-07-20T08:53:00.800Z,47.64
2018-07-20T08:54:00.821Z,49.19
2018-07-20T08:55:00.832Z,52.48
2018-07-20T08:56:00.851Z,54.73
2018-07-20T08:57:00.862Z,54.90
2018-07-20T08:58:00.872Z,54.90
2018-07-20T08:59:00.911Z,55.36
2018-07-20T09:00:00.968Z,54.90
2018-07-20T09:01:00.918Z,55.52
2018-07-20T09:02:00.932Z,54.77
2018-07-20T09:03:00.948Z,54.11
2018-07-20T09:04:00.960Z,52.85
2018-07-20T09:05:00.972Z,51.41
2018-07-20T09:06:00.987Z,51.21
2018-07-20T09:07:01.000Z,50.10
2018-07-20T09:08:01.014Z,49.88
2018-07-20T09:09:01.027Z,48.48
2018-07-20T09:10:01.040Z,48.09
2018-07-20T09:11:01.058Z,48.72
2018-07-20T09:12:22.087Z,47.62
2018-07-20T09:13:01.079Z,46.04
2018-07-20T09:14:01.108Z,43.04
2018-07-20T09:15:01.106Z,42.65
2018-07-20T09:16:01.126Z,41.41
2018-07-20T09:17:01.138Z,40.51
2018-07-20T09:18:01.159Z,42.04
2018-07-20T09:19:01.174Z,41.58
2018-07-20T09:20:01.187Z,41.39
2018-07-20T09:21:01.229Z,41.74
2018-07-20T09:22:01.220Z,41.16
2018-07-20T09:23:01.243Z,37.83
2018-07-20T09:24:01.267Z,38.95
2018-07-20T09:25:01.274Z,39.39
2018-07-20T09:26:01.291Z,39.62
2018-07-20T09:27:01.311Z,40.11
2018-07-20T09:28:01.328Z,41.59
2018-07-20T09:29:01.347Z,41.88
2018-07-20T09:30:01.364Z,41.88
2018-07-20T09:31:01.385Z,41.47
2018-07-20T09:32:01.395Z,40.27
2018-07-20T09:33:01.406Z,42.57
2018-07-20T09:34:01.486Z,45.29
2018-07-20T09:35:01.448Z,43.00
2018-07-20T09:36:01.465Z,41.88
2018-07-20T09:37:01.480Z,41.61
2018-07-20T09:38:01.493Z,42.98
2018-07-20T09:39:01.511Z,43.19
2018-07-20T09:40:01.530Z,43.68
2018-07-20T09:41:01.546Z,43.85
2018-07-20T09:42:01.563Z,45.91
2018-07-20T09:43:01.580Z,45.91
2018-07-20T09:44:01.593Z,45.01
2018-07-20T09:45:01.615Z,44.91
2018-07-20T09:46:01.633Z,45.67
2018-07-20T09:47:01.646Z,44.87
2018-07-20T09:48:01.656Z,45.84
2018-07-20T09:49:01.733Z,45.86
2018-07-20T09:50:01.690Z,46.31
2018-07-20T09:51:01.709Z,47.33
2018-07-20T09:52:01.727Z,47.19
2018-07-20T09:53:01.732Z,47.17
2018-07-20T09:54:01.745Z,46.70
2018-07-20T09:55:01.759Z,45.57
2018-07-20T09:56:01.777Z,45.50
2018-07-20T09:57:01.786Z,45.76
2018-07-20T09:58:01.805Z,46.11
2018-07-20T09:59:01.827Z,46.80
2018-07-20T10:00:01.824Z,48.51
2018-07-20T10:01:01.843Z,49.90
2018-07-20T10:02:01.859Z,45.95
2018-07-20T10:03:01.861Z,43.98
2018-07-20T10:04:01.875Z,42.88
2018-07-20T10:05:01.939Z,43.22
2018-07-20T10:06:01.905Z,43.19
2018-07-20T10:07:01.917Z,43.92
2018-07-20T10:08:01.932Z,45.73
2018-07-20T10:09:01.948Z,44.16
2018-07-20T10:10:01.964Z,41.39
2018-07-20T10:11:01.982Z,41.75
2018-07-20T10:12:02.000Z,40.13
2018-07-20T10:13:02.015Z,40.80
2018-07-20T10:14:02.029Z,38.82
2018-07-20T10:15:02.048Z,40.55
2018-07-20T10:16:02.985Z,40.92
2018-07-20T10:17:02.091Z,41.28
2018-07-20T10:18:02.098Z,37.29
2018-07-20T10:19:02.121Z,37.07
2018-07-20T10:20:02.133Z,39.09
2018-07-20T10:21:02.150Z,41.00
2018-07-20T10:22:02.173Z,42.80
2018-07-20T10:23:02.206Z,43.33
2018-07-20T10:24:02.212Z,43.32
2018-07-20T10:25:02.231Z,41.88
2018-07-20T10:26:02.254Z,41.09
2018-07-20T10:27:02.280Z,41.83
2018-07-20T10:28:02.293Z,40.78
2018-07-20T10:29:02.307Z,42.06
2018-07-20T10:30:02.325Z,43.71
2018-07-20T10:31:02.349Z,46.25
2018-07-20T10:32:02.368Z,40.45
2018-07-20T10:33:02.391Z,40.13
2018-07-20T10:34:02.405Z,40.33
2018-07-20T10:35:02.437Z,40.25
2018-07-20T10:36:02.443Z,40.17
2018-07-20T10:37:02.467Z,40.61
2018-07-20T10:38:02.484Z,37.55
2018-07-20T10:39:02.505Z,37.02
2018-07-20T10:40:02.528Z,37.99
2018-07-20T10:41:02.550Z,37.40
2018-07-20T10:42:02.565Z,41.47
2018-07-20T10:43:02.608Z,38.40
2018-07-20T10:44:02.602Z,38.01
2018-07-20T10:45:02.655Z,38.30
2018-07-20T10:46:02.645Z,38.36
2018-07-20T10:47:02.697Z,40.29
2018-07-20T10:48:02.683Z,40.70
2018-07-20T10:49:02.706Z,39.23
2018-07-20T10:50:02.724Z,40.17
2018-07-20T10:51:02.746Z,37.28
2018-07-20T10:52:02.769Z,37.57
2018-07-20T10:53:02.797Z,39.11
2018-07-20T10:54:02.807Z,39.04
2018-07-20T10:55:02.824Z,40.08
2018-07-20T10:56:02.843Z,41.84
2018-07-20T10:57:02.866Z,41.90
2018-07-20T10:58:02.888Z,39.64
2018-07-20T10:59:02.902Z,39.32
2018-07-20T11:00:02.925Z,39.05
2018-07-20T11:01:02.944Z,37.77
2018-07-20T11:02:02.964Z,38.79
2018-07-20T11:03:02.988Z,37.91
2018-07-20T11:04:03.004Z,40.03
2018-07-20T11:05:03.023Z,41.57
2018-07-20T11:06:03.042Z,42.25
2018-07-20T11:07:03.066Z,42.61
2018-07-20T11:08:03.156Z,44.10
2018-07-20T11:09:03.112Z,40.08
2018-07-20T11:10:03.123Z,40.63
2018-07-20T11:11:03.142Z,40.48
2018-07-20T11:12:03.160Z,37.15
2018-07-20T11:13:03.182Z,36.74
2018-07-20T11:14:03.199Z,37.76
2018-07-20T11:15:03.228Z,36.66
2018-07-20T11:16:03.239Z,37.02
2018-07-20T11:17:03.260Z,38.24
2018-07-20T11:18:03.280Z,39.44
2018-07-20T11:19:03.298Z,40.51
2018-07-20T11:20:03.321Z,41.88
2018-07-20T11:21:03.343Z,41.98
2018-07-20T11:22:03.360Z,40.51
2018-07-20T11:23:03.380Z,42.72
2018-07-20T11:24:03.403Z,41.39
2018-07-20T11:25:03.418Z,40.58
2018-07-20T11:26:03.437Z,40.09
2018-07-20T11:27:03.457Z,40.56
2018-07-20T11:28:03.497Z,36.55
2018-07-20T11:29:03.497Z,39.09
2018-07-20T11:30:03.516Z,37.55
2018-07-20T11:31:03.537Z,38.30
2018-07-20T11:32:03.555Z,40.11
2018-07-20T11:33:03.576Z,38.10
2018-07-20T11:34:03.596Z,35.85
2018-07-20T11:35:03.622Z,35.66
2018-07-20T11:36:03.633Z,35.30
2018-07-20T11:37:03.652Z,33.72
2018-07-20T11:38:03.676Z,35.47
2018-07-20T11:39:03.691Z,37.29
2018-07-20T11:40:03.711Z,38.76
2018-07-20T11:41:03.726Z,41.33
2018-07-20T11:42:03.751Z,42.88
2018-07-20T11:43:03.765Z,43.92
2018-07-20T11:44:03.781Z,44.80
2018-07-20T11:45:03.799Z,43.05
2018-07-20T11:46:03.818Z,43.82
2018-07-20T11:47:03.835Z,43.39
2018-07-20T11:48:03.853Z,43.04
2018-07-20T11:49:03.872Z,41.51
2018-07-20T11:50:03.893Z,43.96
2018-07-20T11:51:03.909Z,43.27
2018-07-20T11:52:03.923Z,41.35
2018-07-20T11:53:03.945Z,41.88
2018-07-20T11:54:03.961Z,42.49
2018-07-20T11:55:04.001Z,41.51
2018-07-20T11:56:04.073Z,39.23
2018-07-20T11:57:04.015Z,41.69
2018-07-20T11:58:04.032Z,40.66
2018-07-20T11:59:04.062Z,40.23
2018-07-20T12:00:04.072Z,40.21
2018-07-20T12:01:04.091Z,40.09
2018-07-20T12:02:04.116Z,38.93
2018-07-20T12:03:04.130Z,40.27
2018-07-20T12:04:04.147Z,36.72
2018-07-20T12:05:04.166Z,38.12
2018-07-20T12:06:04.183Z,38.91
2018-07-20T12:07:04.209Z,38.17
2018-07-20T12:08:04.236Z,39.52
2018-07-20T12:09:04.243Z,40.21
2018-07-20T12:10:04.280Z,40.90
2018-07-20T12:11:04.278Z,41.33
2018-07-20T12:12:04.298Z,39.81
2018-07-20T12:13:04.317Z,37.27
2018-07-20T12:14:04.340Z,39.99
2018-07-20T12:15:04.357Z,35.98
2018-07-20T12:16:04.374Z,36.19
2018-07-20T12:17:04.397Z,36.39
2018-07-20T12:18:04.413Z,36.10
2018-07-20T12:19:04.430Z,35.58
2018-07-20T12:20:04.452Z,35.21
2018-07-20T12:21:04.477Z,35.00
2018-07-20T12:22:04.496Z,35.72
2018-07-20T12:23:04.502Z,35.32
2018-07-20T12:24:04.529Z,36.90
2018-07-20T12:25:04.557Z,37.08
2018-07-20T12:26:04.557Z,35.58
2018-07-20T12:27:04.585Z,37.32
2018-07-20T12:28:04.611Z,38.02
2018-07-20T12:29:04.630Z,40.16
2018-07-20T12:30:04.649Z,39.44
2018-07-20T12:31:04.666Z,40.41
2018-07-20T12:32:04.689Z,41.47
2018-07-20T12:33:04.707Z,41.45
2018-07-20T12:34:04.768Z,42.14
2018-07-20T12:35:04.746Z,42.41
2018-07-20T12:36:04.768Z,41.71
2018-07-20T12:37:04.784Z,40.43
2018-07-20T12:38:04.804Z,43.96
2018-07-20T12:39:04.823Z,43.39
2018-07-20T12:40:04.846Z,43.88
2018-07-20T12:41:04.862Z,42.41
2018-07-20T12:42:04.893Z,42.79
2018-07-20T12:43:04.896Z,43.18
2018-07-20T12:44:04.918Z,43.88
2018-07-20T12:45:04.931Z,41.80
2018-07-20T12:46:04.948Z,42.47
2018-07-20T12:47:04.964Z,42.66
2018-07-20T12:48:04.977Z,43.13
2018-07-20T12:49:04.994Z,44.04
2018-07-20T12:50:05.027Z,43.35
2018-07-20T12:51:05.022Z,43.12
2018-07-20T12:52:05.040Z,41.52
2018-07-20T12:53:05.049Z,43.19
2018-07-20T12:54:05.063Z,43.70
2018-07-20T12:55:05.081Z,42.33
2018-07-20T12:56:05.089Z,42.41
2018-07-20T12:57:05.101Z,44.29
2018-07-20T12:58:05.152Z,43.80
2018-07-20T12:59:05.153Z,42.90
2018-07-20T13:00:05.136Z,42.80
2018-07-20T13:01:05.149Z,42.91
2018-07-20T13:02:05.168Z,44.98
2018-07-20T13:03:05.176Z,45.02
2018-07-20T13:04:05.183Z,45.43
2018-07-20T13:05:05.193Z,43.66
2018-07-20T13:06:05.208Z,41.41
2018-07-20T13:07:05.217Z,42.41
2018-07-20T13:08:05.230Z,42.71
2018-07-20T13:09:05.241Z,43.39
2018-07-20T13:10:05.253Z,42.11
2018-07-20T13:11:05.258Z,42.58
2018-07-20T13:12:05.405Z,42.68
2018-07-20T13:13:05.338Z,41.80
2018-07-20T13:14:05.407Z,41.90
2018-07-20T13:15:05.306Z,42.68
2018-07-20T13:16:05.309Z,42.49
2018-07-20T13:17:05.327Z,42.98
2018-07-20T13:18:05.406Z,41.71
2018-07-20T13:19:05.344Z,42.29
2018-07-20T13:20:05.362Z,42.79
2018-07-20T13:21:05.363Z,41.88
2018-07-20T13:22:05.374Z,42.45
2018-07-20T13:23:05.387Z,42.35
2018-07-20T13:24:05.391Z,42.50
2018-07-20T13:25:05.401Z,42.91
2018-07-20T13:26:05.414Z,43.76
2018-07-20T13:27:05.423Z,45.98
2018-07-20T13:28:05.434Z,45.94
2018-07-20T13:29:05.446Z,47.21
2018-07-20T13:30:05.454Z,47.77
2018-07-20T13:31:05.461Z,49.63
2018-07-20T13:32:05.472Z,53.16
2018-07-20T13:33:05.481Z,55.37
2018-07-20T13:34:05.487Z,56.32
2018-07-20T13:35:05.501Z,57.49
2018-07-20T13:36:05.516Z,57.49
2018-07-20T13:37:05.519Z,57.49
2018-07-20T13:38:05.522Z,57.26
2018-07-20T13:39:05.540Z,57.65
2018-07-20T13:40:05.549Z,58.14
2018-07-20T13:41:05.553Z,58.21
2018-07-20T13:42:05.564Z,59.74
2018-07-20T13:43:05.575Z,59.92
2018-07-20T13:44:05.577Z,60.54
2018-07-20T13:45:05.582Z,59.64
2018-07-20T13:46:05.592Z,59.51
2018-07-20T13:47:05.597Z,59.70
2018-07-20T13:48:05.604Z,59.22
2018-07-20T13:49:06.438Z,59.51
2018-07-20T13:50:05.619Z,59.54
2018-07-20T13:51:05.628Z,59.54
2018-07-20T13:52:05.625Z,59.83
2018-07-20T13:53:05.688Z,59.51
2018-07-20T13:54:05.645Z,60.48
2018-07-20T13:55:05.659Z,58.54
2018-07-20T13:56:05.663Z,58.25
2018-07-20T13:57:05.670Z,58.54
2018-07-20T13:58:05.676Z,58.31
2018-07-20T13:59:05.681Z,58.15
2018-07-20T14:00:05.695Z,58.12
2018-07-20T14:01:05.685Z,58.61
2018-07-20T14:02:05.698Z,59.12
2018-07-20T14:03:05.714Z,59.31
2018-07-20T14:04:05.711Z,59.80
2018-07-20T14:05:05.724Z,58.80
2018-07-20T14:06:05.725Z,59.41
2018-07-20T14:07:05.745Z,59.80
2018-07-20T14:08:05.752Z,59.67
2018-07-20T14:09:05.739Z,59.09
2018-07-20T14:10:05.769Z,60.09
2018-07-20T14:11:05.756Z,59.12
2018-07-20T14:12:05.763Z,59.12
2018-07-20T14:13:05.769Z,59.03
2018-07-20T14:14:05.776Z,58.34
2018-07-20T14:15:05.789Z,59.12
2018-07-20T14:16:05.799Z,58.34
2018-07-20T14:17:05.790Z,58.67
2018-07-20T14:18:05.822Z,58.47
2018-07-20T14:19:05.812Z,58.40
2018-07-20T14:20:05.813Z,58.01
2018-07-20T14:21:05.819Z,58.31
2018-07-20T14:22:05.824Z,58.40
2018-07-20T14:23:05.837Z,58.21
2018-07-20T14:24:05.840Z,57.40
2018-07-20T14:25:05.844Z,58.08
2018-07-20T14:26:05.858Z,58.28